Time;durP1;ratioP1;P1;durP2;ratioP2;P2;SDS_P1;SDS_P2;PMS_P1;PMS_P2;Temp;Humidity;BMP_temperature;BMP_pressure;BME280_temperature;BME280_humidity;BME280_pressure;Samples;Min_cycle;Max_cycle;Signal;HPM_P1;HPM_P2
2022/11/20 00:03:40;;;;;;;9.57;7.07;;;3.90;10.50;;;;;;6104465;23;19905;-83
2022/11/20 00:06:57;;;;;;;;;;;;;;;;;;;;;
2022/11/20 00:10:27;;;;;;;;;;;;;;;;;;;;;
2022/11/20 00:14:36;;;;;;;;;;;;;;;;;;;;;
2022/11/20 00:18:01;;;;;;;9.07;5.85;;;3.70;1.00;;;;;;5914100;24;20123;-86
2022/11/20 00:25:37;;;;;;;10.27;5.78;;;3.70;99.90;;;;;;5903091;24;20013;-86
2022/11/20 00:29:20;;;;;;;;;;;;;;;;;;;;;
2022/11/20 00:32:15;;;;;;;10.20;5.75;;;3.60;99.90;;;;;;5872926;24;20033;-88
2022/11/20 00:35:45;;;;;;;9.40;5.78;;;3.60;99.90;;;;;;5815259;24;20455;-85
2022/11/20 00:46:22;;;;;;;6.90;5.00;;;3.60;99.90;;;;;;5956852;24;20099;-90
2022/11/20 00:49:38;;;;;;;6.72;5.20;;;3.60;99.90;;;;;;5926617;24;20041;-87
2022/11/20 00:53:49;;;;;;;8.45;5.97;;;3.60;99.90;;;;;;5912819;24;20069;-86
2022/11/20 01:01:03;;;;;;;7.55;5.32;;;3.50;55.30;;;;;;6010626;23;20039;-86
2022/11/20 01:04:48;;;;;;;7.70;5.15;;;3.50;99.90;;;;;;6033217;23;20027;-86
2022/11/20 01:08:03;;;;;;;7.95;4.47;;;3.50;99.90;;;;;;6054244;23;20694;-86
2022/11/20 01:11:28;;;;;;;6.82;4.70;;;3.40;99.90;;;;;;6034343;23;20036;-88
2022/11/20 01:14:29;;;;;;;8.30;5.43;;;3.40;99.90;;;;;;6011554;23;20055;-87
2022/11/20 01:18:05;;;;;;;10.35;5.43;;;3.30;99.90;;;;;;6011111;23;20016;-84
2022/11/20 01:21:20;;;;;;;10.32;5.38;;;3.30;99.90;;;;;;6040452;23;20142;-87
2022/11/20 01:24:50;;;;;;;6.18;5.15;;;3.30;99.90;;;;;;6039781;23;20030;-86
2022/11/20 01:37:17;;;;;;;8.10;5.93;;;3.00;1.00;;;;;;6010451;23;20144;-88
2022/11/20 01:53:13;;;;;;;13.73;7.30;;;3.10;99.90;;;;;;6137047;23;20013;-87
2022/11/20 01:57:18;;;;;;;;;;;;;;;;;;;;;
2022/11/20 02:04:40;;;;;;;13.80;8.98;;;3.10;99.90;;;;;;6095996;23;20009;-86
2022/11/20 02:07:50;;;;;;;15.55;9.25;;;3.10;99.90;;;;;;6054927;23;20026;-89
2022/11/20 02:10:58;;;;;;;12.77;9.32;;;3.10;99.90;;;;;;6090134;23;20092;-88
2022/11/20 02:13:50;;;;;;;16.08;10.10;;;3.00;99.90;;;;;;6153978;23;20021;-88
2022/11/20 02:17:38;;;;;;;15.88;10.45;;;3.10;99.90;;;;;;5993205;23;20075;-86
2022/11/20 02:21:30;;;;;;;23.08;11.55;;;3.10;99.90;;;;;;6028367;23;20024;-88
2022/11/20 02:33:19;;;;;;;21.83;12.07;;;3.10;99.90;;;;;;6136906;23;20045;-88
2022/11/20 02:37:01;;;;;;;;;;;;;;;;;;;;;
2022/11/20 02:43:32;;;;;;;17.52;13.30;;;3.20;99.90;;;;;;6243332;22;20028;-87
2022/11/20 02:46:22;;;;;;;20.50;12.55;;;3.30;99.90;;;;;;6255134;23;20078;-85
2022/11/20 02:53:26;;;;;;;20.52;12.57;;;3.30;99.90;;;;;;6183373;23;20017;-88
2022/11/20 03:14:06;;;;;;;16.63;10.40;;;3.20;99.90;;;;;;6010314;23;20012;-87
2022/11/20 03:30:58;;;;;;;15.23;10.52;;;3.00;99.90;;;;;;6043433;23;20063;-87
2022/11/20 03:34:30;;;;;;;18.50;10.68;;;2.90;99.90;;;;;;6072127;23;20018;-87
2022/11/20 03:42:44;;;;;;;16.80;10.73;;;2.80;99.90;;;;;;6152924;23;20380;-87
2022/11/20 03:46:10;;;;;;;17.50;10.82;;;2.90;99.90;;;;;;6183621;23;20013;-89
2022/11/20 04:18:33;;;;;;;;;;;;;;;;;;;;;
2022/11/20 04:30:33;;;;;;;13.55;10.13;;;3.30;99.90;;;;;;5985126;24;20091;-89
2022/11/20 04:38:02;;;;;;;16.83;9.02;;;3.50;99.90;;;;;;5983683;24;20012;-85
2022/11/20 04:45:52;;;;;;;10.15;7.90;;;3.50;99.90;;;;;;5993256;23;20023;-86
2022/11/20 05:01:10;;;;;;;10.77;7.03;;;3.60;59.50;;;;;;5991707;23;20012;-88
2022/11/20 05:12:25;;;;;;;11.50;7.28;;;3.60;1.00;;;;;;6084165;23;20018;-85
2022/11/20 05:16:06;;;;;;;9.25;6.80;;;3.60;1.00;;;;;;6077193;23;20026;-87
2022/11/20 05:19:58;;;;;;;9.75;6.70;;;3.70;1.00;;;;;;5954191;24;20115;-87
2022/11/20 05:23:18;;;;;;;8.65;6.38;;;3.70;99.90;;;;;;5871264;24;20034;-90
2022/11/20 05:27:01;;;;;;;10.55;7.25;;;3.70;99.90;;;;;;5873082;24;20026;-85
2022/11/20 05:33:59;;;;;;;9.15;6.82;;;3.70;99.90;;;;;;5924446;24;20021;-87
2022/11/20 05:37:18;;;;;;;14.52;6.50;;;3.60;56.00;;;;;;6008694;23;20037;-89
2022/11/20 05:52:47;;;;;;;9.18;6.47;;;3.60;1.00;;;;;;6123749;23;20017;-88
2022/11/20 05:55:35;;;;;;;9.90;7.18;;;3.60;90.00;;;;;;6124774;23;20101;-87
2022/11/20 05:58:57;;;;;;;10.32;7.28;;;3.60;82.50;;;;;;6067657;23;20014;-85
2022/11/20 06:02:51;;;;;;;9.63;6.25;;;3.60;1.00;;;;;;6010279;23;20080;-87
2022/11/20 06:11:01;;;;;;;8.02;6.32;;;3.70;60.20;;;;;;5982559;24;20160;-86
2022/11/20 06:19:23;;;;;;;;;;;;;;;;;;;;;
2022/11/20 06:23:50;;;;;;;8.82;6.07;;;3.70;99.90;;;;;;5897592;24;20034;-87
2022/11/20 06:30:52;;;;;;;9.93;6.20;;;3.70;29.90;;;;;;5832755;24;20030;-85
2022/11/20 06:33:55;;;;;;;8.95;7.20;;;3.70;55.40;;;;;;5969874;23;20027;-88
2022/11/20 06:36:42;;;;;;;8.95;6.05;;;3.70;51.00;;;;;;6176902;23;20099;-86
2022/11/20 06:39:29;;;;;;;10.07;5.97;;;3.70;1.00;;;;;;6166113;23;20487;-87
2022/11/20 06:42:17;;;;;;;7.90;6.45;;;3.70;1.00;;;;;;6175240;23;20047;-86
2022/11/20 06:45:05;;;;;;;8.38;6.28;;;3.70;1.00;;;;;;6175698;23;20056;-86
2022/11/20 06:47:57;;;;;;;9.63;6.03;;;3.70;1.20;;;;;;6174995;23;20021;-85
2022/11/20 06:50:44;;;;;;;9.43;6.38;;;3.70;1.00;;;;;;6166793;23;20356;-85
2022/11/20 06:53:32;;;;;;;10.30;6.93;;;3.70;1.00;;;;;;6183443;23;20115;-87
2022/11/20 06:56:19;;;;;;;9.68;6.70;;;3.70;1.00;;;;;;6163406;23;20056;-85
2022/11/20 06:59:07;;;;;;;8.70;5.80;;;3.80;99.90;;;;;;6164049;23;20294;-85
2022/11/20 07:01:58;;;;;;;11.50;6.65;;;3.90;99.90;;;;;;6162486;23;20040;-84
2022/11/20 07:04:45;;;;;;;8.18;5.97;;;3.80;99.90;;;;;;6163052;23;20025;-83
2022/11/20 07:08:12;;;;;;;10.35;6.00;;;3.90;99.90;;;;;;6163004;23;20413;-85
2022/11/20 07:23:15;;;;;;;6.70;5.50;;;4.10;1.00;;;;;;6097466;23;20114;-86
2022/11/20 07:26:06;;;;;;;10.38;6.97;;;4.10;1.00;;;;;;6120754;23;20036;-84
2022/11/20 07:28:53;;;;;;;15.75;6.45;;;4.10;1.00;;;;;;6163667;23;20087;-82
2022/11/20 07:31:41;;;;;;;10.75;6.63;;;4.10;1.00;;;;;;6186510;23;20111;-83
2022/11/20 07:34:28;;;;;;;8.80;6.50;;;4.10;1.00;;;;;;6185849;23;20063;-84
2022/11/20 07:37:18;;;;;;;10.20;6.22;;;4.10;1.00;;;;;;6186117;23;20029;-85
2022/11/20 07:40:05;;;;;;;8.07;5.93;;;4.20;99.90;;;;;;6164638;23;20035;-85
2022/11/20 07:42:54;;;;;;;6.65;5.35;;;4.20;99.90;;;;;;6183506;23;20099;-85
2022/11/20 07:45:42;;;;;;;9.98;5.97;;;4.20;99.90;;;;;;6165512;23;20484;-84
2022/11/20 07:48:29;;;;;;;8.90;6.72;;;4.20;99.90;;;;;;6185991;23;20421;-83
2022/11/20 07:51:18;;;;;;;8.05;5.88;;;4.20;99.90;;;;;;6186610;23;20111;-83
2022/11/20 07:54:05;;;;;;;9.07;5.90;;;4.30;99.90;;;;;;6185068;23;20104;-82
2022/11/20 07:56:54;;;;;;;7.57;5.32;;;4.30;99.90;;;;;;6186359;23;20025;-86
2022/11/20 07:59:41;;;;;;;11.25;6.38;;;4.20;1.00;;;;;;6189512;23;20081;-84
2022/11/20 08:02:28;;;;;;;9.10;5.72;;;4.20;93.50;;;;;;6198739;23;20025;-85
2022/11/20 08:05:15;;;;;;;7.63;5.15;;;4.20;99.90;;;;;;6199050;23;20029;-84
2022/11/20 08:08:03;;;;;;;6.68;5.60;;;4.20;99.90;;;;;;6198178;23;20629;-85
2022/11/20 08:10:50;;;;;;;10.02;5.93;;;4.30;1.00;;;;;;6209393;23;20013;-83
2022/11/20 08:16:49;;;;;;;8.63;5.57;;;4.40;43.30;;;;;;6191075;23;20107;-82
2022/11/20 08:19:39;;;;;;;7.18;5.63;;;4.50;99.90;;;;;;6189950;23;20029;-84
2022/11/20 08:22:26;;;;;;;8.43;4.82;;;4.60;91.60;;;;;;6189932;23;20029;-83
2022/11/20 08:25:13;;;;;;;14.02;5.50;;;4.60;99.90;;;;;;6191690;23;20037;-84
2022/11/20 08:28:02;;;;;;;6.47;5.40;;;4.60;99.90;;;;;;6183875;23;20052;-82
2022/11/20 08:31:04;;;;;;;7.50;5.80;;;4.70;99.90;;;;;;6186274;23;20025;-84
2022/11/20 08:33:52;;;;;;;6.20;4.80;;;4.70;1.00;;;;;;6184651;23;20043;-83
2022/11/20 08:36:39;;;;;;;6.57;5.00;;;4.80;1.00;;;;;;6164136;23;20029;-83
2022/11/20 08:39:26;;;;;;;5.35;4.70;;;4.80;1.00;;;;;;6163587;23;20500;-82
2022/11/20 08:42:13;;;;;;;6.40;5.38;;;4.90;99.90;;;;;;6185307;23;20107;-84
2022/11/20 08:45:03;;;;;;;10.80;4.97;;;4.90;99.90;;;;;;6166405;23;20036;-85
2022/11/20 08:47:50;;;;;;;7.63;6.10;;;4.90;99.90;;;;;;6163593;23;20436;-85
2022/11/20 08:50:37;;;;;;;19.55;12.45;;;5.00;99.90;;;;;;6164314;23;20372;-84
2022/11/20 08:53:27;;;;;;;19.48;13.38;;;5.10;1.00;;;;;;6166202;23;20021;-83
2022/11/20 08:56:15;;;;;;;16.58;9.50;;;5.20;99.90;;;;;;6163755;23;20028;-83
2022/11/20 08:59:04;;;;;;;11.00;7.22;;;5.30;99.90;;;;;;6166150;23;20025;-84
2022/11/20 09:02:11;;;;;;;29.35;20.25;;;5.50;1.00;;;;;;6169037;23;20385;-85
2022/11/20 09:04:59;;;;;;;11.55;5.45;;;5.40;99.90;;;;;;6164254;23;20190;-85
2022/11/20 09:07:46;;;;;;;24.33;10.90;;;5.50;61.80;;;;;;6164714;23;20029;-84
2022/11/20 09:10:33;;;;;;;20.85;9.52;;;5.50;99.90;;;;;;6167892;23;20107;-83
2022/11/20 09:13:22;;;;;;;6.97;4.47;;;5.50;67.40;;;;;;6188446;23;20068;-81
2022/11/20 09:16:10;;;;;;;9.57;5.07;;;5.50;1.00;;;;;;6169365;23;20036;-81
2022/11/20 09:18:59;;;;;;;6.13;3.03;;;5.50;99.90;;;;;;6166076;23;20025;-83
2022/11/20 09:22:07;;;;;;;3.67;2.35;;;5.40;1.00;;;;;;6169302;23;20167;-83
2022/11/20 09:24:56;;;;;;;2.50;2.20;;;5.30;1.00;;;;;;6164224;23;20043;-84
2022/11/20 09:27:45;;;;;;;1.90;1.80;;;5.30;99.90;;;;;;6164463;23;20104;-85
2022/11/20 09:30:35;;;;;;;2.00;1.88;;;5.30;99.90;;;;;;6144693;23;20428;-84
2022/11/20 09:33:22;;;;;;;1.85;1.75;;;5.40;99.90;;;;;;6163509;23;20425;-84
2022/11/20 09:36:10;;;;;;;2.40;2.20;;;5.30;1.00;;;;;;6183133;23;20044;-85
2022/11/20 09:38:57;;;;;;;2.70;2.38;;;5.30;99.90;;;;;;6165152;23;20036;-82
2022/11/20 09:42:17;;;;;;;2.70;2.13;;;5.30;1.00;;;;;;6164725;23;20437;-83
2022/11/20 09:45:10;;;;;;;3.42;2.10;;;5.30;1.00;;;;;;6126689;23;20112;-82
2022/11/20 09:48:15;;;;;;;1.83;1.73;;;5.30;1.00;;;;;;6185490;23;20404;-86
2022/11/20 09:51:22;;;;;;;2.40;2.20;;;5.30;99.90;;;;;;6184745;23;20037;-86
2022/11/20 09:54:26;;;;;;;3.20;1.80;;;5.30;5.20;;;;;;6186943;23;20433;-87
2022/11/20 09:57:31;;;;;;;3.17;2.70;;;5.30;1.00;;;;;;6165819;23;20449;-86
2022/11/20 10:00:21;;;;;;;2.92;2.35;;;5.30;1.00;;;;;;6164289;23;20036;-86
2022/11/20 10:03:24;;;;;;;4.80;2.17;;;5.30;1.00;;;;;;6185907;23;20025;-89
2022/11/20 10:06:59;;;;;;;2.17;1.90;;;5.30;99.90;;;;;;6165671;23;20052;-87
2022/11/20 10:10:21;;;;;;;2.72;2.05;;;5.30;99.90;;;;;;6166502;23;20032;-90
2022/11/20 10:13:34;;;;;;;1.77;1.67;;;5.40;1.00;;;;;;6165471;23;20091;-87
2022/11/20 10:16:42;;;;;;;1.58;1.48;;;5.40;99.90;;;;;;6183080;23;20060;-86
2022/11/20 10:19:32;;;;;;;1.67;1.48;;;5.30;1.00;;;;;;6163596;23;20029;-88
2022/11/20 10:22:57;;;;;;;1.75;1.65;;;5.40;99.90;;;;;;6182516;23;20060;-85
2022/11/20 10:25:55;;;;;;;1.48;1.38;;;5.30;99.90;;;;;;6162235;23;20036;-84
2022/11/20 10:28:54;;;;;;;2.10;1.90;;;5.40;99.90;;;;;;6162360;23;20052;-86
2022/11/20 10:32:01;;;;;;;1.90;1.80;;;5.40;99.90;;;;;;6185864;23;20029;-88
2022/11/20 10:35:20;;;;;;;2.42;2.00;;;5.40;99.90;;;;;;6167724;23;20112;-88
2022/11/20 10:38:39;;;;;;;4.30;2.67;;;5.50;99.90;;;;;;6183551;23;20317;-87
2022/11/20 10:41:40;;;;;;;3.28;2.17;;;5.50;99.90;;;;;;6142903;23;20706;-84
2022/11/20 10:47:42;;;;;;;3.65;1.98;;;5.50;99.90;;;;;;6184116;23;20039;-84
2022/11/20 10:50:30;;;;;;;2.85;2.40;;;5.50;99.90;;;;;;6162755;23;20028;-84
2022/11/20 10:53:25;;;;;;;2.97;2.22;;;5.60;79.00;;;;;;6162576;23;20412;-84
2022/11/20 10:56:38;;;;;;;3.67;2.03;;;5.70;99.90;;;;;;6183089;23;20029;-85
2022/11/20 10:59:46;;;;;;;2.35;1.70;;;5.90;1.00;;;;;;6165561;23;20040;-84
2022/11/20 11:02:54;;;;;;;2.90;1.40;;;6.10;9.00;;;;;;6181959;23;20099;-83
2022/11/20 11:05:54;;;;;;;2.40;1.60;;;6.30;99.90;;;;;;6164168;23;20057;-84
2022/11/20 11:08:46;;;;;;;2.67;1.95;;;6.40;99.90;;;;;;6162352;23;20033;-84
2022/11/20 11:11:33;;;;;;;2.90;1.77;;;6.50;1.00;;;;;;6164458;23;20028;-84
2022/11/20 14:35:18;;;;;;;4.93;2.25;;;6.00;99.90;;;;;;6134908;23;20016;-84
2022/11/20 14:51:44;;;;;;;5.10;2.20;;;5.70;99.90;;;;;;6037325;23;20050;-85
2022/11/20 15:03:52;;;;;;;3.08;2.28;;;5.40;1.00;;;;;;5981593;23;20028;-84
2022/11/20 15:11:32;;;;;;;7.95;3.78;;;5.20;99.90;;;;;;6017857;23;20019;-85
2022/11/20 17:10:19;;;;;;;6.57;3.55;;;5.10;1.00;;;;;;6065886;23;20022;-82
2022/11/20 17:22:26;;;;;;;6.22;3.78;;;5.10;99.90;;;;;;5978093;24;20409;-82
2022/11/20 17:41:43;;;;;;;9.50;5.38;;;5.20;1.00;;;;;;6185596;23;20103;-83
2022/11/20 17:44:31;;;;;;;17.10;9.65;;;5.30;1.00;;;;;;6186332;23;20075;-82
2022/11/20 17:47:18;;;;;;;7.25;3.95;;;5.30;1.00;;;;;;6185366;23;20028;-81
2022/11/20 17:50:06;;;;;;;4.72;3.42;;;5.30;1.00;;;;;;6185017;23;20039;-80
2022/11/20 17:52:54;;;;;;;6.13;3.50;;;5.30;1.00;;;;;;6162949;23;20433;-82
2022/11/20 17:58:49;;;;;;;5.90;4.07;;;5.30;99.90;;;;;;6185032;23;20098;-82
2022/11/20 18:01:38;;;;;;;4.88;3.03;;;5.30;99.90;;;;;;6185350;23;20037;-81
2022/11/20 18:04:25;;;;;;;8.45;4.10;;;5.30;99.90;;;;;;6186422;23;20285;-81
2022/11/20 18:07:15;;;;;;;7.05;3.60;;;5.30;99.90;;;;;;6184013;23;20029;-81
2022/11/20 18:10:06;;;;;;;5.72;3.75;;;5.30;99.90;;;;;;6163003;23;20115;-82
2022/11/20 18:12:55;;;;;;;4.53;2.83;;;5.20;99.90;;;;;;6184914;23;20047;-80
2022/11/20 18:15:43;;;;;;;2.90;2.47;;;5.30;99.90;;;;;;6184696;23;20113;-81
2022/11/20 18:18:30;;;;;;;4.57;2.65;;;5.30;99.90;;;;;;6185422;23;20044;-83
2022/11/20 18:21:18;;;;;;;3.33;2.15;;;5.30;99.90;;;;;;6186824;23;20029;-81
2022/11/20 18:24:06;;;;;;;7.00;2.42;;;5.30;99.90;;;;;;6183268;23;20029;-81
2022/11/20 18:26:54;;;;;;;4.63;2.50;;;5.30;99.90;;;;;;6184738;23;20077;-81
2022/11/20 18:29:44;;;;;;;6.32;2.72;;;5.30;99.90;;;;;;6184454;23;20552;-82
2022/11/20 18:32:34;;;;;;;7.93;5.25;;;5.30;99.90;;;;;;6164644;23;20021;-82
2022/11/20 18:35:22;;;;;;;5.18;3.75;;;5.10;99.90;;;;;;6184511;23;20083;-80
2022/11/20 18:38:10;;;;;;;4.35;3.25;;;5.00;99.90;;;;;;6184050;23;20069;-80
2022/11/20 18:40:59;;;;;;;3.90;2.42;;;5.00;99.90;;;;;;6183162;23;20066;-82
2022/11/20 18:46:56;;;;;;;7.57;3.88;;;5.00;1.00;;;;;;6184670;23;20028;-82
2022/11/20 18:49:51;;;;;;;8.65;3.97;;;4.90;1.00;;;;;;6185685;23;20083;-82
2022/11/20 18:52:43;;;;;;;6.60;4.43;;;4.80;1.00;;;;;;6184965;23;20108;-83
2022/11/20 18:55:31;;;;;;;6.10;3.03;;;4.80;1.00;;;;;;6183916;23;20087;-81
2022/11/20 18:58:18;;;;;;;3.92;3.08;;;4.80;36.10;;;;;;6184185;23;20032;-81
2022/11/20 19:01:07;;;;;;;7.03;3.95;;;4.80;95.70;;;;;;6184757;23;20033;-83
2022/11/20 19:03:55;;;;;;;7.43;3.22;;;4.70;99.90;;;;;;6185132;23;20079;-81
2022/11/20 19:06:52;;;;;;;4.43;2.95;;;4.60;99.90;;;;;;6184141;23;20039;-85
2022/11/20 19:09:41;;;;;;;9.27;2.25;;;4.60;99.90;;;;;;6185126;23;20120;-83
2022/11/20 19:12:31;;;;;;;1.90;1.67;;;4.60;99.90;;;;;;6185544;23;20429;-83
2022/11/20 19:15:19;;;;;;;4.10;2.03;;;4.50;99.90;;;;;;6184910;23;20036;-84
2022/11/20 19:18:06;;;;;;;4.35;2.03;;;4.40;99.90;;;;;;6186032;23;20059;-84
2022/11/20 19:20:54;;;;;;;2.65;1.38;;;4.40;99.90;;;;;;6186189;23;20104;-82
2022/11/20 19:23:42;;;;;;;2.90;2.25;;;4.40;99.90;;;;;;6165131;23;20025;-83
2022/11/20 19:26:35;;;;;;;1.23;1.10;;;4.30;99.90;;;;;;6184007;23;20025;-83
2022/11/20 19:29:23;;;;;;;2.78;1.70;;;4.30;99.90;;;;;;6183528;23;20479;-82
2022/11/20 19:32:11;;;;;;;2.05;1.70;;;4.30;99.90;;;;;;6187288;23;20029;-82
2022/11/20 19:35:00;;;;;;;2.47;1.58;;;4.20;99.90;;;;;;6188325;23;20025;-81
2022/11/20 19:37:48;;;;;;;1.67;1.27;;;4.20;99.90;;;;;;6165318;23;20298;-82
2022/11/20 19:40:35;;;;;;;2.88;2.50;;;4.20;99.90;;;;;;6187619;23;20033;-82
2022/11/20 19:43:23;;;;;;;2.55;1.88;;;4.10;99.90;;;;;;6165615;23;20074;-82
2022/11/20 19:46:10;;;;;;;2.33;1.80;;;4.10;1.00;;;;;;6188434;23;20040;-82
2022/11/20 19:49:01;;;;;;;3.17;2.00;;;4.20;1.00;;;;;;6186387;23;20104;-82
2022/11/20 19:51:50;;;;;;;2.67;1.58;;;4.10;1.00;;;;;;6188669;23;20171;-82
2022/11/20 19:54:37;;;;;;;2.15;1.80;;;4.10;1.00;;;;;;6170553;23;20028;-82
2022/11/20 19:57:25;;;;;;;2.58;1.70;;;4.00;1.00;;;;;;6194360;23;20031;-82
2022/11/20 20:00:16;;;;;;;1.95;1.75;;;4.00;1.00;;;;;;6185892;23;20111;-81
2022/11/20 20:03:13;;;;;;;2.22;1.70;;;4.00;1.00;;;;;;6187800;23;20104;-83
2022/11/20 20:06:08;;;;;;;2.53;1.67;;;3.90;1.00;;;;;;6186474;23;20040;-82
2022/11/20 20:09:03;;;;;;;2.03;1.63;;;3.90;4.10;;;;;;6186603;23;20029;-84
2022/11/20 20:11:50;;;;;;;1.75;1.65;;;3.90;48.50;;;;;;6187526;23;20025;-84
2022/11/20 20:14:38;;;;;;;3.05;1.90;;;3.90;99.90;;;;;;6183014;23;20025;-82
2022/11/20 20:17:25;;;;;;;2.88;1.73;;;3.80;99.90;;;;;;6185542;23;20025;-83
2022/11/20 20:20:15;;;;;;;2.65;1.40;;;3.80;99.90;;;;;;6186979;23;20039;-83
2022/11/20 20:23:06;;;;;;;1.75;1.65;;;3.80;99.90;;;;;;6165916;23;20036;-82
2022/11/20 20:25:56;;;;;;;2.75;2.35;;;3.80;99.90;;;;;;6188586;23;20029;-85
2022/11/20 20:28:46;;;;;;;1.80;1.50;;;3.80;99.90;;;;;;6187723;23;20056;-83
2022/11/20 20:31:35;;;;;;;4.18;2.40;;;3.80;99.90;;;;;;6189905;23;20033;-84
2022/11/20 20:34:23;;;;;;;1.77;1.50;;;3.80;99.90;;;;;;6185773;23;20132;-83
2022/11/20 20:37:12;;;;;;;1.85;1.70;;;3.80;99.90;;;;;;6187166;23;20036;-83
2022/11/20 20:40:00;;;;;;;2.20;1.88;;;3.80;99.90;;;;;;6184777;23;20029;-86
2022/11/20 20:42:47;;;;;;;2.47;1.70;;;3.80;99.90;;;;;;6184553;23;20103;-83
2022/11/20 20:45:35;;;;;;;1.75;1.33;;;3.80;99.90;;;;;;6186666;23;20060;-84
2022/11/20 20:48:24;;;;;;;1.80;1.70;;;3.80;99.90;;;;;;6187134;23;20496;-86
2022/11/20 20:51:16;;;;;;;1.70;1.30;;;3.80;1.00;;;;;;6187817;23;20385;-83
2022/11/20 20:54:04;;;;;;;3.42;1.35;;;3.80;1.00;;;;;;6186143;23;20096;-86
2022/11/20 20:56:52;;;;;;;1.75;1.30;;;3.80;1.00;;;;;;6186981;23;20025;-84
2022/11/20 20:59:41;;;;;;;2.10;1.60;;;3.80;1.00;;;;;;6186729;23;20321;-83
2022/11/20 21:02:29;;;;;;;3.60;1.60;;;3.70;99.90;;;;;;6186840;23;20111;-84
2022/11/20 21:05:21;;;;;;;1.70;1.55;;;3.80;99.90;;;;;;6187622;23;20025;-85
2022/11/20 21:08:21;;;;;;;2.27;1.80;;;3.70;99.90;;;;;;6165236;23;20039;-85
2022/11/20 21:11:14;;;;;;;1.40;1.30;;;3.70;99.90;;;;;;6186524;23;20327;-83
2022/11/20 21:14:01;;;;;;;;;;;3.70;1.00;;;;;;6187957;23;20025;-84
2022/11/20 21:16:51;;;;;;;1.83;1.50;;;3.60;79.50;;;;;;6186751;23;19916;-84
2022/11/20 21:19:39;;;;;;;2.35;1.65;;;3.60;99.90;;;;;;6164716;23;20021;-85
2022/11/20 21:22:30;;;;;;;1.40;1.20;;;3.60;99.90;;;;;;6188656;23;20286;-82
2022/11/20 21:25:24;;;;;;;1.33;1.23;;;3.60;1.00;;;;;;6168405;23;20025;-82
2022/11/20 21:28:11;;;;;;;1.85;1.50;;;3.50;98.20;;;;;;6186170;23;20032;-83
2022/11/20 21:31:06;;;;;;;1.80;1.42;;;3.50;99.90;;;;;;6184772;23;20025;-82
2022/11/20 21:33:56;;;;;;;2.75;1.50;;;3.50;99.90;;;;;;6165076;23;20340;-83
2022/11/20 21:36:47;;;;;;;2.78;2.10;;;3.50;1.00;;;;;;6164335;23;20048;-84
2022/11/20 21:39:49;;;;;;;3.03;2.03;;;3.50;99.90;;;;;;6163945;23;20083;-83
2022/11/20 21:42:36;;;;;;;1.85;1.60;;;3.50;99.90;;;;;;6186197;23;20040;-84
2022/11/20 21:45:23;;;;;;;5.22;1.90;;;3.50;1.00;;;;;;6187065;23;20025;-82
2022/11/20 21:48:10;;;;;;;1.85;1.67;;;3.50;1.00;;;;;;6187803;23;20309;-82
2022/11/20 21:51:02;;;;;;;2.35;1.80;;;3.50;99.90;;;;;;6186087;23;20052;-84
2022/11/20 21:53:54;;;;;;;3.60;2.08;;;3.50;99.90;;;;;;6184770;23;20036;-82
2022/11/20 21:56:42;;;;;;;1.70;1.60;;;3.60;1.00;;;;;;6186129;23;20025;-83
2022/11/20 21:59:32;;;;;;;3.25;1.67;;;3.60;1.00;;;;;;6163392;23;20021;-82
2022/11/20 22:02:19;;;;;;;3.20;1.73;;;3.60;99.90;;;;;;6187571;23;20021;-84
2022/11/20 22:05:07;;;;;;;1.92;1.50;;;3.60;99.90;;;;;;6189265;23;20087;-83
2022/11/20 22:07:54;;;;;;;2.25;1.77;;;3.70;1.00;;;;;;6188710;23;20322;-82
2022/11/20 22:10:41;;;;;;;2.80;1.90;;;3.70;1.00;;;;;;6194411;23;20025;-82
2022/11/20 22:16:36;;;;;;;2.17;1.92;;;3.60;99.90;;;;;;6199077;23;20052;-83
2022/11/20 22:19:23;;;;;;;1.70;1.60;;;3.60;1.00;;;;;;6204000;23;20021;-83
2022/11/20 22:22:10;;;;;;;2.78;2.38;;;3.60;1.00;;;;;;6199282;23;20321;-83
2022/11/20 22:25:01;;;;;;;2.33;2.13;;;3.70;15.30;;;;;;6193308;23;20029;-84
2022/11/20 22:27:50;;;;;;;4.47;2.25;;;3.70;55.90;;;;;;6170684;23;20067;-86
2022/11/20 22:30:38;;;;;;;4.78;2.83;;;3.70;99.90;;;;;;6186240;23;20044;-83
2022/11/20 22:33:27;;;;;;;4.43;2.40;;;3.70;99.90;;;;;;6189951;23;20108;-83
2022/11/20 22:36:19;;;;;;;3.05;2.28;;;3.70;99.90;;;;;;6166940;23;20096;-83
2022/11/20 22:39:06;;;;;;;6.15;3.60;;;3.70;99.90;;;;;;6186757;23;20029;-83
2022/11/20 22:41:54;;;;;;;3.15;1.77;;;3.60;99.90;;;;;;6184318;23;20032;-84
2022/11/20 22:44:41;;;;;;;7.72;2.97;;;3.70;99.90;;;;;;6185646;23;20025;-85
2022/11/20 22:47:28;;;;;;;3.63;2.38;;;3.60;99.90;;;;;;6186685;23;20147;-84
2022/11/20 22:50:15;;;;;;;1.65;1.55;;;3.60;99.90;;;;;;6187854;23;20111;-83
2022/11/20 22:53:02;;;;;;;1.35;1.20;;;3.60;99.90;;;;;;6164445;23;20175;-83
2022/11/20 22:55:53;;;;;;;1.65;1.30;;;3.60;99.90;;;;;;6184139;23;20390;-83
2022/11/20 22:58:42;;;;;;;2.95;1.40;;;3.50;99.90;;;;;;6189826;23;20100;-84
2022/11/20 23:01:35;;;;;;;5.55;1.30;;;3.50;99.90;;;;;;6186703;23;20447;-84
2022/11/20 23:04:22;;;;;;;1.17;1.08;;;3.40;99.90;;;;;;6185928;23;20025;-84
2022/11/20 23:07:10;;;;;;;1.08;1.08;;;3.40;99.90;;;;;;6162488;23;20028;-83
2022/11/20 23:09:57;;;;;;;1.40;1.30;;;3.40;99.90;;;;;;6184980;23;20052;-85
2022/11/20 23:12:44;;;;;;;3.50;1.98;;;3.30;99.90;;;;;;6186429;23;20021;-86
2022/11/20 23:15:33;;;;;;;3.15;1.50;;;3.30;99.90;;;;;;6185698;23;20324;-86
2022/11/20 23:18:23;;;;;;;2.75;1.38;;;3.40;99.90;;;;;;6166773;23;20025;-84
2022/11/20 23:21:18;;;;;;;1.73;1.38;;;3.40;99.90;;;;;;6166704;23;20021;-84
2022/11/20 23:24:06;;;;;;;1.88;1.70;;;3.40;99.90;;;;;;6186764;23;20124;-85
2022/11/20 23:26:57;;;;;;;2.20;1.63;;;3.30;99.90;;;;;;6185570;23;20028;-84
2022/11/20 23:29:46;;;;;;;4.23;1.83;;;3.30;99.90;;;;;;6183941;23;20025;-85
2022/11/20 23:32:33;;;;;;;2.92;1.70;;;3.30;99.90;;;;;;6164653;23;20028;-83
2022/11/20 23:35:21;;;;;;;2.53;1.63;;;3.30;99.90;;;;;;6162603;23;20032;-85
2022/11/20 23:38:11;;;;;;;2.75;1.80;;;3.40;99.90;;;;;;6183639;23;20115;-83
2022/11/20 23:40:58;;;;;;;5.03;1.83;;;3.40;99.90;;;;;;6186260;23;20168;-83
2022/11/20 23:43:46;;;;;;;5.50;1.50;;;3.50;99.90;;;;;;6184085;23;20025;-85
2022/11/20 23:46:33;;;;;;;3.60;1.63;;;3.60;99.90;;;;;;6163847;23;20060;-85
2022/11/20 23:49:21;;;;;;;3.47;1.55;;;3.60;99.90;;;;;;6185638;23;20325;-84
2022/11/20 23:52:08;;;;;;;2.95;1.42;;;3.60;99.90;;;;;;6184286;23;20021;-86
2022/11/20 23:54:55;;;;;;;6.05;2.30;;;3.50;99.90;;;;;;6181960;23;20646;-83
2022/11/20 23:57:42;;;;;;;4.45;1.10;;;3.40;99.90;;;;;;6163214;23;20025;-86
